Time;durP1;ratioP1;P1;durP2;ratioP2;P2;SDS_P1;SDS_P2;PMS_P1;PMS_P2;Temp;Humidity;BMP_temperature;BMP_pressure;BME280_temperature;BME280_humidity;BME280_pressure;Samples;Min_cycle;Max_cycle;Signal;HPM_P1;HPM_P2
2022/03/19 00:00:51;;;;;;;12.60;8.60;;;-3.70;26.40;;;;;;8343785;28;20375;-67
2022/03/19 00:04:53;;;;;;;14.50;8.07;;;-3.50;1.00;;;;;;8328058;28;20225;-66
2022/03/19 00:08:55;;;;;;;14.53;9.33;;;-3.30;99.90;;;;;;8350652;28;20276;-66
2022/03/19 00:12:58;;;;;;;13.80;7.77;;;-3.10;99.90;;;;;;8333306;28;20283;-67
2022/03/19 00:16:59;;;;;;;13.67;8.73;;;-2.90;1.00;;;;;;8332253;28;20504;-66
2022/03/19 00:21:00;;;;;;;16.93;9.57;;;-2.80;1.00;;;;;;8345226;28;20224;-66
2022/03/19 00:25:01;;;;;;;15.97;9.27;;;-2.80;99.90;;;;;;8350542;28;20229;-65
2022/03/19 00:29:02;;;;;;;19.13;10.33;;;-2.80;99.90;;;;;;8332430;28;20244;-66
2022/03/19 00:33:03;;;;;;;18.40;9.80;;;-2.90;99.90;;;;;;8341083;28;20213;-66
2022/03/19 00:37:04;;;;;;;20.20;9.97;;;-2.90;1.00;;;;;;8350651;28;20212;-66
2022/03/19 00:41:04;;;;;;;20.00;10.10;;;-3.00;1.00;;;;;;8340962;28;20304;-65
2022/03/19 00:45:06;;;;;;;21.40;11.37;;;-3.00;47.10;;;;;;8349252;28;20541;-66
2022/03/19 00:49:07;;;;;;;24.43;12.50;;;-2.90;99.90;;;;;;8335776;28;20267;-65
2022/03/19 00:53:08;;;;;;;21.50;11.73;;;-2.80;99.90;;;;;;8331683;28;20213;-65
2022/03/19 00:57:08;;;;;;;22.03;11.70;;;-2.80;99.90;;;;;;8334034;28;20231;-65
2022/03/19 01:01:09;;;;;;;22.93;11.47;;;-2.70;99.90;;;;;;8330493;28;20656;-65
2022/03/19 01:05:12;;;;;;;22.03;10.80;;;-2.60;99.90;;;;;;8332051;28;20236;-66
2022/03/19 01:09:12;;;;;;;16.63;9.73;;;-2.60;99.90;;;;;;8354860;28;20206;-65
2022/03/19 01:13:13;;;;;;;23.67;12.47;;;-2.50;99.90;;;;;;8340907;28;20363;-66
2022/03/19 01:17:14;;;;;;;17.80;10.53;;;-2.40;27.50;;;;;;8352826;28;20212;-65
2022/03/19 01:21:16;;;;;;;22.87;11.80;;;-2.40;1.00;;;;;;8332753;28;20469;-66
2022/03/19 01:25:18;;;;;;;18.80;10.93;;;-2.30;99.90;;;;;;8355232;28;20217;-65
2022/03/19 01:29:19;;;;;;;17.43;10.67;;;-2.20;99.90;;;;;;8337032;28;20216;-65
2022/03/19 01:33:20;;;;;;;15.87;10.47;;;-2.20;99.90;;;;;;8345505;28;20316;-65
2022/03/19 01:37:24;;;;;;;23.27;10.30;;;-2.30;99.90;;;;;;8340322;28;20286;-66
2022/03/19 01:41:25;;;;;;;15.83;9.73;;;-2.40;1.00;;;;;;8354459;28;20551;-65
2022/03/19 01:45:26;;;;;;;17.43;10.37;;;-2.50;99.90;;;;;;8354419;28;20213;-66
2022/03/19 01:49:28;;;;;;;18.77;9.80;;;-2.60;99.90;;;;;;8332894;28;20648;-66
2022/03/19 01:53:29;;;;;;;17.73;9.87;;;-2.80;1.00;;;;;;8335105;28;20277;-65
2022/03/19 01:57:34;;;;;;;15.53;10.00;;;-2.90;99.90;;;;;;8345024;28;20224;-65
2022/03/19 02:01:35;;;;;;;17.40;9.80;;;-3.00;1.00;;;;;;8334951;28;20213;-65
2022/03/19 02:05:36;;;;;;;16.00;9.27;;;-3.10;88.20;;;;;;8335330;28;20229;-66
2022/03/19 02:09:39;;;;;;;19.57;9.37;;;-3.10;99.90;;;;;;8340971;28;20308;-66
2022/03/19 02:13:40;;;;;;;18.17;10.00;;;-3.30;99.90;;;;;;8344621;28;20205;-65
2022/03/19 02:17:41;;;;;;;26.80;12.33;;;-3.40;99.90;;;;;;8332734;28;20255;-66
2022/03/19 02:21:43;;;;;;;23.90;12.07;;;-3.40;1.00;;;;;;8327545;28;20210;-66
2022/03/19 02:25:48;;;;;;;20.07;11.87;;;-3.50;99.90;;;;;;8338219;28;20229;-65
2022/03/19 02:29:48;;;;;;;21.53;12.83;;;-3.50;99.90;;;;;;8334190;28;20205;-65
2022/03/19 02:33:49;;;;;;;27.00;13.90;;;-3.50;99.90;;;;;;8335007;28;20236;-65
2022/03/19 02:37:50;;;;;;;26.73;13.67;;;-3.50;1.00;;;;;;8351633;28;20217;-66
2022/03/19 02:41:52;;;;;;;22.83;12.60;;;-3.50;1.00;;;;;;8331767;28;20209;-65
2022/03/19 02:45:53;;;;;;;23.20;11.57;;;-3.40;99.90;;;;;;8351530;28;20237;-65
2022/03/19 02:49:55;;;;;;;20.60;11.20;;;-3.50;99.90;;;;;;8344235;28;20295;-66
2022/03/19 02:53:55;;;;;;;21.97;11.00;;;-3.50;99.90;;;;;;8337752;28;20320;-66
2022/03/19 02:57:56;;;;;;;22.97;13.40;;;-3.50;99.90;;;;;;8348803;28;20205;-66
2022/03/19 03:02:05;;;;;;;24.93;13.03;;;-3.50;99.90;;;;;;8335818;28;20220;-65
2022/03/19 03:06:06;;;;;;;28.30;15.27;;;-3.40;99.90;;;;;;8352015;28;20298;-66
2022/03/19 03:10:08;;;;;;;57.87;21.83;;;-3.30;99.90;;;;;;8336117;28;20213;-65
2022/03/19 03:14:09;;;;;;;51.40;21.13;;;-3.30;1.00;;;;;;8351538;28;20205;-67
2022/03/19 03:18:10;;;;;;;47.97;22.73;;;-3.30;99.90;;;;;;8350420;28;20220;-66
2022/03/19 03:22:11;;;;;;;45.20;20.70;;;-3.30;1.00;;;;;;8340409;28;20238;-67
2022/03/19 03:26:12;;;;;;;51.37;23.50;;;-3.50;99.90;;;;;;8359900;28;20228;-67
2022/03/19 03:30:13;;;;;;;40.57;20.33;;;-3.60;1.00;;;;;;8342657;28;20197;-67
2022/03/19 03:34:13;;;;;;;36.33;17.77;;;-3.60;1.00;;;;;;8346813;28;20226;-66
2022/03/19 03:38:14;;;;;;;44.93;20.63;;;-3.70;99.90;;;;;;8350090;28;20193;-66
2022/03/19 03:42:16;;;;;;;38.93;19.40;;;-3.80;99.90;;;;;;8338151;28;20213;-68
2022/03/19 03:46:16;;;;;;;35.63;18.47;;;-3.80;99.90;;;;;;8335650;28;20227;-67
2022/03/19 03:50:20;;;;;;;42.70;19.53;;;-3.80;99.90;;;;;;8347889;28;20214;-68
2022/03/19 03:54:20;;;;;;;36.53;18.83;;;-3.80;99.90;;;;;;8334637;28;20218;-66
2022/03/19 03:58:23;;;;;;;38.97;19.37;;;-3.80;1.00;;;;;;8346055;28;20299;-66
2022/03/19 04:02:23;;;;;;;36.00;19.23;;;-3.80;1.00;;;;;;8349153;28;20533;-67
2022/03/19 04:06:24;;;;;;;30.43;18.10;;;-3.70;99.90;;;;;;8338732;28;20218;-67
2022/03/19 04:10:25;;;;;;;41.23;17.97;;;-3.60;99.90;;;;;;8346995;28;20619;-66
2022/03/19 04:14:26;;;;;;;33.73;16.43;;;-3.70;99.90;;;;;;8344590;28;20344;-66
2022/03/19 04:18:27;;;;;;;32.30;17.63;;;-3.60;99.90;;;;;;8339192;28;20264;-67
2022/03/19 04:22:38;;;;;;;26.13;16.57;;;-3.60;99.90;;;;;;8350765;28;20208;-66
2022/03/19 04:26:39;;;;;;;32.70;16.87;;;-3.60;67.10;;;;;;8332169;28;20245;-66
2022/03/19 04:30:41;;;;;;;29.73;16.13;;;-3.50;1.00;;;;;;8349545;28;20212;-67
2022/03/19 04:34:41;;;;;;;44.40;21.97;;;-3.60;1.00;;;;;;8348640;28;20232;-67
2022/03/19 04:38:42;;;;;;;45.57;21.93;;;-3.60;22.30;;;;;;8331279;28;20212;-66
2022/03/19 04:42:44;;;;;;;38.57;20.40;;;-3.70;99.90;;;;;;8345451;28;20263;-66
2022/03/19 04:46:45;;;;;;;42.73;20.23;;;-3.80;99.90;;;;;;8348688;28;20211;-66
2022/03/19 04:50:46;;;;;;;47.20;24.73;;;-3.80;99.90;;;;;;8342495;28;20211;-66
2022/03/19 04:54:46;;;;;;;50.77;23.47;;;-3.80;1.00;;;;;;8339336;28;20217;-71
2022/03/19 04:58:48;;;;;;;42.50;21.47;;;-3.80;1.00;;;;;;8327834;28;20201;-68
2022/03/19 05:02:50;;;;;;;44.27;22.07;;;-3.90;1.00;;;;;;8327267;28;20232;-66
2022/03/19 05:06:51;;;;;;;42.33;20.67;;;-3.90;1.00;;;;;;8349488;28;20217;-66
2022/03/19 05:15:13;;;;;;;53.87;25.40;;;-3.70;1.00;;;;;;8344228;28;20228;-66
2022/03/19 05:19:14;;;;;;;43.20;22.53;;;-3.50;1.00;;;;;;8324045;28;20205;-66
2022/03/19 05:23:15;;;;;;;44.53;24.67;;;-3.40;1.00;;;;;;8331892;28;20278;-67
2022/03/19 05:27:17;;;;;;;48.97;25.07;;;-3.30;1.00;;;;;;8349045;28;20228;-66
2022/03/19 05:31:17;;;;;;;48.30;24.27;;;-3.20;1.00;;;;;;8331003;28;20198;-66
2022/03/19 05:35:20;;;;;;;44.37;21.80;;;-3.00;1.00;;;;;;8339222;28;20228;-67
2022/03/19 05:39:21;;;;;;;42.17;22.03;;;-2.80;1.00;;;;;;8347543;28;20197;-67
2022/03/19 05:43:22;;;;;;;47.70;23.00;;;-2.40;1.00;;;;;;8335178;28;20221;-67
2022/03/19 05:47:23;;;;;;;41.87;21.53;;;-2.10;99.90;;;;;;8341784;28;20217;-66
2022/03/19 05:51:24;;;;;;;42.23;23.47;;;-1.80;99.90;;;;;;8341207;28;20209;-66
2022/03/19 05:55:25;;;;;;;45.67;22.20;;;-1.50;1.00;;;;;;8353852;28;20201;-67
2022/03/19 05:59:25;;;;;;;43.47;22.47;;;-1.10;99.90;;;;;;8352315;28;20213;-67
2022/03/19 06:03:26;;;;;;;44.43;22.30;;;-0.90;1.00;;;;;;8336626;28;20225;-67
2022/03/19 06:07:27;;;;;;;40.57;22.40;;;-0.70;1.00;;;;;;8352301;28;20213;-66
2022/03/19 06:11:28;;;;;;;42.43;22.33;;;-0.60;96.90;;;;;;8331764;28;20210;-67
2022/03/19 06:15:29;;;;;;;42.20;22.00;;;-0.60;1.00;;;;;;8335757;28;20265;-67
2022/03/19 06:19:30;;;;;;;38.10;20.77;;;-0.60;99.90;;;;;;8337983;28;20236;-67
2022/03/19 06:23:31;;;;;;;40.00;20.70;;;-0.60;99.90;;;;;;8353068;28;20224;-67
2022/03/19 06:27:32;;;;;;;42.50;22.20;;;-0.60;99.90;;;;;;8352467;28;20253;-67
2022/03/19 06:31:33;;;;;;;43.57;22.40;;;-0.50;62.10;;;;;;8333836;28;20207;-67
2022/03/19 06:40:03;;;;;;;42.40;20.43;;;-0.40;99.90;;;;;;8352404;28;20227;-66
2022/03/19 06:44:04;;;;;;;33.57;19.67;;;-0.40;99.90;;;;;;8345946;28;20227;-66
2022/03/19 06:48:05;;;;;;;34.33;19.37;;;-0.30;99.90;;;;;;8334470;28;20215;-67
2022/03/19 06:52:07;;;;;;;47.40;23.00;;;0.00;1.00;;;;;;8353748;28;20315;-66
2022/03/19 06:56:08;;;;;;;58.47;26.70;;;0.30;99.90;;;;;;8354700;28;20267;-67
2022/03/19 07:00:09;;;;;;;69.77;29.27;;;0.60;1.00;;;;;;8348875;28;20213;-68
2022/03/19 07:04:10;;;;;;;56.90;27.07;;;1.00;99.90;;;;;;8333531;28;20209;-67
2022/03/19 07:08:10;;;;;;;45.30;25.20;;;1.30;99.90;;;;;;8344534;28;20235;-67
2022/03/19 07:12:11;;;;;;;49.43;26.90;;;1.50;99.90;;;;;;8335317;28;20215;-67
2022/03/19 07:16:15;;;;;;;44.83;25.80;;;1.70;1.00;;;;;;8329141;28;20202;-67
2022/03/19 07:20:16;;;;;;;42.73;24.83;;;2.00;99.90;;;;;;8350689;28;20202;-66
2022/03/19 07:24:16;;;;;;;46.17;26.90;;;2.20;1.00;;;;;;8352118;28;20236;-66
2022/03/19 07:28:18;;;;;;;48.37;27.60;;;2.50;99.90;;;;;;8338288;28;20285;-66
2022/03/19 07:32:19;;;;;;;46.23;24.90;;;2.70;99.90;;;;;;8337508;28;20206;-66
2022/03/19 07:36:20;;;;;;;57.50;30.20;;;2.90;99.90;;;;;;8335922;28;20209;-66
2022/03/19 07:44:41;;;;;;;69.80;34.33;;;3.10;99.90;;;;;;8348762;28;20233;-66
2022/03/19 07:48:42;;;;;;;67.10;31.93;;;3.40;19.00;;;;;;8346905;28;20214;-66
2022/03/19 07:52:43;;;;;;;215.73;90.73;;;3.60;1.00;;;;;;8334080;28;20201;-67
2022/03/19 07:56:44;;;;;;;151.23;86.70;;;3.70;1.00;;;;;;8339863;28;20210;-67
2022/03/19 08:00:46;;;;;;;58.33;37.03;;;3.80;1.00;;;;;;8344756;28;20229;-66
2022/03/19 08:04:47;;;;;;;48.03;29.53;;;3.90;1.00;;;;;;8351871;28;20232;-67
2022/03/19 08:08:48;;;;;;;48.73;28.97;;;4.00;99.90;;;;;;8333613;28;20206;-66
2022/03/19 08:12:49;;;;;;;60.00;34.97;;;4.20;99.90;;;;;;8346588;28;20207;-65
2022/03/19 08:16:50;;;;;;;55.67;32.10;;;4.30;99.90;;;;;;8344981;28;20210;-67
2022/03/19 08:20:51;;;;;;;47.83;27.03;;;4.50;40.90;;;;;;8320250;28;20224;-66
2022/03/19 08:24:53;;;;;;;49.00;27.43;;;4.80;1.00;;;;;;8301461;28;20326;-66
2022/03/19 08:28:54;;;;;;;44.90;26.53;;;4.90;1.00;;;;;;8328719;28;20273;-65
2022/03/19 08:32:55;;;;;;;145.03;67.53;;;5.10;1.00;;;;;;8326821;28;20217;-66
2022/03/19 08:36:56;;;;;;;115.90;57.20;;;5.30;1.00;;;;;;8333418;28;20197;-66
2022/03/19 08:41:08;;;;;;;50.53;28.27;;;5.50;1.00;;;;;;8513648;27;20538;-65
2022/03/19 08:45:09;;;;;;;50.73;28.20;;;5.60;1.00;;;;;;8477766;28;20208;-65
2022/03/19 08:49:11;;;;;;;42.30;24.17;;;5.80;1.00;;;;;;8449366;27;20222;-64
2022/03/19 08:53:13;;;;;;;59.87;27.43;;;6.00;99.90;;;;;;8462845;28;20228;-65
2022/03/19 08:57:14;;;;;;;50.43;24.20;;;6.10;99.90;;;;;;8460959;27;20198;-64
2022/03/19 09:01:15;;;;;;;48.43;26.10;;;6.30;99.90;;;;;;8462796;28;20322;-66
2022/03/19 09:05:16;;;;;;;37.70;23.20;;;6.50;99.90;;;;;;8443916;28;20206;-65
2022/03/19 09:09:19;;;;;;;54.07;24.47;;;6.70;99.90;;;;;;8469885;28;20213;-66
2022/03/19 09:13:20;;;;;;;41.43;22.77;;;6.90;99.90;;;;;;8455295;28;20252;-65
2022/03/19 09:17:21;;;;;;;35.93;22.07;;;7.00;99.90;;;;;;8474096;28;20287;-64
2022/03/19 09:21:22;;;;;;;30.53;19.50;;;7.30;99.90;;;;;;8480824;27;20207;-65
2022/03/19 09:25:23;;;;;;;37.20;21.90;;;7.60;99.90;;;;;;8470469;27;20203;-65
2022/03/19 09:29:24;;;;;;;62.03;30.07;;;8.20;99.90;;;;;;8459409;27;20207;-64
2022/03/19 09:33:25;;;;;;;81.23;36.27;;;8.40;99.90;;;;;;8467523;28;20242;-65
2022/03/19 09:37:26;;;;;;;22.93;13.63;;;8.60;99.90;;;;;;8460280;27;20207;-66
2022/03/19 09:41:27;;;;;;;32.00;14.50;;;8.70;99.90;;;;;;8462951;28;20207;-64
2022/03/19 09:45:29;;;;;;;30.50;14.67;;;8.70;86.00;;;;;;8463988;28;20263;-65
2022/03/19 09:49:31;;;;;;;16.73;8.63;;;8.40;44.80;;;;;;8439602;28;20288;-65
2022/03/19 09:53:32;;;;;;;13.77;9.53;;;8.20;38.70;;;;;;8455692;28;20222;-64
2022/03/19 09:57:33;;;;;;;30.43;15.07;;;8.10;35.00;;;;;;8453125;28;20601;-65
2022/03/19 10:01:37;;;;;;;21.90;11.40;;;8.10;35.20;;;;;;8449123;28;20227;-63
2022/03/19 10:10:00;;;;;;;29.23;16.50;;;8.00;35.60;;;;;;8438152;28;20273;-64
2022/03/19 10:14:06;;;;;;;19.40;12.33;;;7.90;42.00;;;;;;8418179;28;20223;-64
2022/03/19 10:18:10;;;;;;;20.43;12.30;;;7.90;42.60;;;;;;8448346;28;20230;-64
2022/03/19 10:22:12;;;;;;;25.37;13.50;;;7.90;48.10;;;;;;8452677;28;20271;-64
2022/03/19 10:26:29;;;;;;;22.67;13.00;;;8.10;50.70;;;;;;8447676;28;20204;-65
2022/03/19 10:30:38;;;;;;;23.73;13.50;;;8.30;43.20;;;;;;8432369;28;20214;-64
2022/03/19 10:34:40;;;;;;;21.80;13.33;;;8.40;35.80;;;;;;8435060;28;20216;-66
2022/03/19 10:38:43;;;;;;;26.17;14.70;;;8.40;37.20;;;;;;8447031;28;20223;-63
2022/03/19 10:42:44;;;;;;;25.23;14.80;;;8.40;39.00;;;;;;8451591;28;20310;-63
2022/03/19 10:46:50;;;;;;;39.63;18.70;;;8.40;35.20;;;;;;8442594;28;20207;-66
2022/03/19 10:50:53;;;;;;;25.00;14.57;;;8.40;37.40;;;;;;8425946;28;20204;-65
2022/03/19 10:54:55;;;;;;;30.17;14.90;;;8.40;56.60;;;;;;8431400;28;20314;-66
2022/03/19 10:58:56;;;;;;;18.40;12.57;;;8.50;37.80;;;;;;8444566;28;20216;-64
2022/03/19 11:03:00;;;;;;;23.67;15.80;;;8.50;29.90;;;;;;8434580;28;20223;-64
2022/03/19 11:07:04;;;;;;;26.33;16.20;;;8.70;32.80;;;;;;8441314;28;20222;-64
2022/03/19 11:11:14;;;;;;;20.83;13.17;;;8.80;36.50;;;;;;8426106;28;20216;-66
2022/03/19 11:15:17;;;;;;;24.70;14.93;;;9.00;32.80;;;;;;8441804;28;20235;-65
2022/03/19 11:19:17;;;;;;;22.63;13.90;;;9.10;27.90;;;;;;8434978;28;20230;-67
2022/03/19 11:23:58;;;;;;;23.70;12.40;;;9.10;23.40;;;;;;8416003;28;20239;-65
2022/03/19 11:28:00;;;;;;;20.37;11.93;;;9.10;21.00;;;;;;8431913;28;20209;-64
2022/03/19 11:32:05;;;;;;;20.53;11.70;;;9.20;11.30;;;;;;8443601;28;20212;-66
2022/03/19 11:36:10;;;;;;;20.47;10.50;;;9.20;5.20;;;;;;8423291;28;20298;-66
2022/03/19 11:40:12;;;;;;;16.30;10.97;;;9.30;1.00;;;;;;8425049;28;20220;-65
2022/03/19 11:44:15;;;;;;;14.17;10.57;;;9.20;1.00;;;;;;8420645;28;20251;-66
2022/03/19 11:48:34;;;;;;;18.97;12.00;;;9.20;1.00;;;;;;8447993;28;20199;-63
2022/03/19 11:52:46;;;;;;;23.90;12.50;;;9.30;1.00;;;;;;8435792;28;20277;-64
2022/03/19 11:56:47;;;;;;;18.33;11.50;;;9.40;1.00;;;;;;8445551;28;20219;-66
2022/03/19 12:00:59;;;;;;;18.07;11.93;;;9.40;1.00;;;;;;8425236;28;20231;-64
2022/03/19 12:05:15;;;;;;;16.87;10.53;;;9.40;1.00;;;;;;8432552;28;20208;-63
2022/03/19 12:09:16;;;;;;;16.53;11.87;;;9.40;1.00;;;;;;8433422;28;20211;-65
2022/03/19 12:13:37;;;;;;;19.40;12.97;;;9.50;1.00;;;;;;8424051;28;20691;-65
2022/03/19 12:17:38;;;;;;;19.23;12.03;;;9.50;1.00;;;;;;8442811;28;20220;-64
2022/03/19 12:21:43;;;;;;;18.67;11.70;;;9.50;1.00;;;;;;8438672;28;20218;-67
2022/03/19 12:26:02;;;;;;;21.37;13.20;;;9.50;1.00;;;;;;8453520;28;20204;-66
2022/03/19 12:30:05;;;;;;;15.37;11.13;;;9.50;1.00;;;;;;8417925;28;20224;-66
2022/03/19 12:34:06;;;;;;;25.23;14.83;;;9.70;1.00;;;;;;8425908;28;20208;-65
2022/03/19 12:38:07;;;;;;;12.57;10.53;;;9.80;1.00;;;;;;8437023;28;20223;-67
2022/03/19 12:42:08;;;;;;;19.63;12.70;;;9.80;1.00;;;;;;8424517;28;20241;-66
2022/03/19 12:46:09;;;;;;;17.53;11.50;;;9.80;1.00;;;;;;8436748;28;20218;-64
2022/03/19 12:50:10;;;;;;;16.07;11.13;;;9.80;1.00;;;;;;8417859;28;20251;-64
2022/03/19 12:54:28;;;;;;;19.73;12.77;;;9.90;1.00;;;;;;8443514;28;20204;-66
2022/03/19 12:58:40;;;;;;;16.77;10.57;;;10.00;1.00;;;;;;8437692;28;20326;-67
2022/03/19 13:02:52;;;;;;;18.03;11.30;;;10.00;1.00;;;;;;8441120;28;20419;-66
2022/03/19 13:06:54;;;;;;;20.43;11.53;;;10.00;1.00;;;;;;8435310;28;20204;-65
2022/03/19 13:10:55;;;;;;;13.60;9.90;;;10.00;1.00;;;;;;8437779;28;20208;-65
2022/03/19 13:14:57;;;;;;;12.77;8.90;;;10.00;1.00;;;;;;8413281;28;20216;-65
2022/03/19 13:19:00;;;;;;;12.80;9.00;;;10.00;1.00;;;;;;8446232;28;20228;-65
2022/03/19 13:23:02;;;;;;;13.33;8.80;;;10.00;1.00;;;;;;8438671;28;20588;-66
2022/03/19 13:27:04;;;;;;;13.10;9.20;;;10.00;1.00;;;;;;8435635;28;20208;-64
2022/03/19 13:31:08;;;;;;;16.47;10.37;;;10.00;1.00;;;;;;8433849;28;20311;-66
2022/03/19 13:35:09;;;;;;;15.00;9.10;;;10.00;1.00;;;;;;8423226;28;20218;-65
2022/03/19 13:39:22;;;;;;;11.73;9.07;;;10.00;1.00;;;;;;8455012;28;20380;-67
2022/03/19 13:43:36;;;;;;;17.57;10.97;;;10.00;1.00;;;;;;8429788;28;20214;-64
2022/03/19 13:47:42;;;;;;;14.17;10.50;;;10.10;1.00;;;;;;8442403;28;20212;-65
2022/03/19 13:51:47;;;;;;;14.23;9.70;;;10.10;1.00;;;;;;8455235;28;20547;-64
2022/03/19 13:55:48;;;;;;;18.63;11.63;;;10.10;1.00;;;;;;8452566;28;20240;-63
2022/03/19 13:59:48;;;;;;;16.73;11.57;;;10.10;1.00;;;;;;8420315;28;20219;-65
2022/03/19 14:03:49;;;;;;;14.97;10.73;;;10.10;1.00;;;;;;8443434;28;20326;-66
2022/03/19 14:07:54;;;;;;;18.93;13.60;;;10.10;1.00;;;;;;8427115;28;20211;-65
2022/03/19 14:11:55;;;;;;;17.53;12.77;;;10.00;1.00;;;;;;8455859;28;20214;-64
2022/03/19 14:15:56;;;;;;;22.47;16.30;;;10.00;1.00;;;;;;8432645;28;20301;-68
2022/03/19 14:19:57;;;;;;;12.47;8.97;;;10.00;1.00;;;;;;8429663;28;20239;-65
2022/03/19 14:23:58;;;;;;;17.77;10.50;;;9.90;1.00;;;;;;8420057;28;20223;-67
2022/03/19 14:28:12;;;;;;;13.67;9.87;;;10.00;1.00;;;;;;8423409;28;20207;-66
2022/03/19 14:32:13;;;;;;;17.27;10.40;;;9.90;1.00;;;;;;8448777;28;20214;-66
2022/03/19 14:36:14;;;;;;;15.17;9.50;;;9.80;1.00;;;;;;8435694;28;20286;-65
2022/03/19 14:40:15;;;;;;;15.07;10.03;;;9.90;1.00;;;;;;8448927;28;20224;-66
2022/03/19 14:44:16;;;;;;;13.67;9.67;;;9.80;1.00;;;;;;8447577;28;20210;-64
2022/03/19 14:48:18;;;;;;;13.80;9.90;;;9.80;1.00;;;;;;8438439;28;20208;-64
2022/03/19 14:52:18;;;;;;;19.07;11.47;;;9.80;1.00;;;;;;8450230;28;20294;-65
2022/03/19 14:56:20;;;;;;;15.57;10.10;;;9.70;1.00;;;;;;8448679;28;20211;-64
2022/03/19 15:00:21;;;;;;;16.77;10.73;;;9.70;1.00;;;;;;8445409;28;20490;-64
2022/03/19 15:04:22;;;;;;;18.47;11.37;;;9.70;1.00;;;;;;8429337;28;20204;-64
2022/03/19 15:08:23;;;;;;;50.73;25.37;;;9.70;1.00;;;;;;8432830;28;20203;-65
2022/03/19 15:12:25;;;;;;;42.00;22.43;;;9.70;1.00;;;;;;8441578;28;20207;-64
2022/03/19 15:16:26;;;;;;;25.33;14.13;;;9.60;1.00;;;;;;8425899;28;20215;-63
2022/03/19 15:20:27;;;;;;;16.80;10.53;;;9.60;1.00;;;;;;8428081;28;20231;-66
2022/03/19 15:24:28;;;;;;;14.47;9.67;;;9.60;1.00;;;;;;8431522;28;20307;-65
2022/03/19 15:28:29;;;;;;;23.03;11.07;;;9.50;1.00;;;;;;8438695;28;20211;-63
2022/03/19 15:32:31;;;;;;;19.77;11.50;;;9.40;1.00;;;;;;8447390;28;20199;-64
2022/03/19 15:36:33;;;;;;;24.23;13.50;;;9.40;1.00;;;;;;8433552;28;20233;-66
2022/03/19 15:40:34;;;;;;;20.00;10.77;;;9.40;1.00;;;;;;8425052;28;20224;-66
2022/03/19 15:44:35;;;;;;;17.27;10.90;;;9.30;1.00;;;;;;8447981;28;20204;-64
2022/03/19 15:48:36;;;;;;;24.37;13.03;;;9.20;1.00;;;;;;8422334;28;20216;-64
2022/03/19 15:52:37;;;;;;;22.60;14.47;;;9.20;1.00;;;;;;8443309;28;20208;-66
2022/03/19 15:56:38;;;;;;;27.50;14.93;;;9.10;1.00;;;;;;8452365;28;20211;-63
2022/03/19 16:00:39;;;;;;;20.03;11.83;;;9.00;1.00;;;;;;8445557;28;20275;-63
2022/03/19 16:04:40;;;;;;;22.63;14.57;;;8.90;1.00;;;;;;8417220;28;20246;-64
2022/03/19 16:08:41;;;;;;;25.33;14.40;;;8.80;1.00;;;;;;8440219;28;20262;-65
2022/03/19 16:12:42;;;;;;;19.77;12.07;;;8.70;1.00;;;;;;8434587;28;20203;-64
2022/03/19 16:16:42;;;;;;;21.67;12.17;;;8.70;1.00;;;;;;8442536;28;20218;-64
2022/03/19 16:20:43;;;;;;;20.30;12.90;;;8.60;1.00;;;;;;8425049;28;20371;-66
2022/03/19 16:24:44;;;;;;;24.73;15.13;;;8.50;1.00;;;;;;8434908;28;20279;-66
2022/03/19 16:28:45;;;;;;;24.93;15.20;;;8.30;1.00;;;;;;8434708;28;20212;-65
2022/03/19 16:32:51;;;;;;;23.67;14.83;;;8.30;1.00;;;;;;8450823;28;20192;-66
2022/03/19 16:36:54;;;;;;;21.87;14.27;;;8.20;1.00;;;;;;8428093;28;20223;-65
2022/03/19 16:40:55;;;;;;;27.80;17.50;;;8.00;1.00;;;;;;8433972;28;20257;-64
2022/03/19 16:44:57;;;;;;;22.43;14.13;;;7.80;1.00;;;;;;8450453;28;20214;-64
2022/03/19 16:48:57;;;;;;;32.23;23.07;;;7.70;1.00;;;;;;8423654;28;20460;-64
2022/03/19 16:52:59;;;;;;;63.87;35.23;;;7.50;1.00;;;;;;8450851;28;20332;-65
2022/03/19 16:57:00;;;;;;;24.07;15.50;;;7.30;1.00;;;;;;8427224;28;20212;-66
2022/03/19 17:01:01;;;;;;;25.77;16.00;;;7.20;1.00;;;;;;8432375;28;20288;-65
2022/03/19 17:05:03;;;;;;;25.27;14.53;;;7.10;1.00;;;;;;8427671;28;20218;-63
2022/03/19 17:09:04;;;;;;;45.80;25.27;;;6.90;3.50;;;;;;8448522;28;20514;-67
2022/03/19 17:13:05;;;;;;;44.30;24.40;;;6.80;7.90;;;;;;8434683;28;20211;-65
2022/03/19 17:17:06;;;;;;;43.03;25.73;;;6.60;12.90;;;;;;8449320;28;20212;-66
2022/03/19 17:21:07;;;;;;;56.10;26.97;;;6.50;17.70;;;;;;8456206;28;20314;-64
2022/03/19 17:25:09;;;;;;;53.63;26.13;;;6.30;24.70;;;;;;8424484;28;20214;-66
2022/03/19 17:29:12;;;;;;;355.73;146.57;;;6.10;29.10;;;;;;8434664;28;20234;-66
2022/03/19 17:33:13;;;;;;;134.80;55.90;;;5.90;38.00;;;;;;8422190;28;20207;-67
2022/03/19 17:37:14;;;;;;;50.23;20.33;;;5.80;44.10;;;;;;8442836;28;20202;-66
2022/03/19 17:41:15;;;;;;;43.23;16.27;;;5.60;50.90;;;;;;8454873;28;20234;-67
2022/03/19 17:45:17;;;;;;;67.43;28.13;;;5.50;73.60;;;;;;8451033;28;20204;-63
2022/03/19 17:49:18;;;;;;;119.10;42.13;;;5.30;60.00;;;;;;8443777;28;20210;-66
2022/03/19 17:53:19;;;;;;;113.83;39.03;;;5.20;65.80;;;;;;8441223;28;20211;-64
2022/03/19 17:57:20;;;;;;;107.70;31.87;;;5.10;72.30;;;;;;8449694;28;20205;-63
2022/03/19 18:01:22;;;;;;;67.30;23.87;;;5.00;76.20;;;;;;8427563;28;20322;-67
2022/03/19 18:05:23;;;;;;;39.63;16.47;;;5.00;78.90;;;;;;8429808;28;20249;-65
2022/03/19 18:09:24;;;;;;;38.17;19.10;;;4.80;81.00;;;;;;8442892;28;20276;-66
2022/03/19 18:13:25;;;;;;;35.53;18.33;;;4.70;86.90;;;;;;8442562;28;20249;-65
2022/03/19 18:17:25;;;;;;;40.63;19.80;;;4.60;93.00;;;;;;8452983;28;20295;-67
2022/03/19 18:21:26;;;;;;;50.63;24.33;;;4.50;95.30;;;;;;8454893;28;20232;-66
2022/03/19 18:25:27;;;;;;;70.00;27.23;;;4.40;97.10;;;;;;8434294;28;20209;-66
2022/03/19 18:29:28;;;;;;;52.83;23.07;;;4.40;99.40;;;;;;8441947;28;20207;-67
2022/03/19 18:33:29;;;;;;;62.30;27.17;;;4.30;99.90;;;;;;8428913;28;20223;-65
2022/03/19 18:37:30;;;;;;;107.50;49.03;;;4.30;99.90;;;;;;8438068;28;20211;-65
2022/03/19 18:41:31;;;;;;;117.87;42.40;;;4.10;99.90;;;;;;8435434;28;20250;-65
2022/03/19 18:45:32;;;;;;;81.13;32.83;;;4.00;99.90;;;;;;8439799;28;20214;-66
2022/03/19 18:49:33;;;;;;;100.07;37.43;;;3.90;99.90;;;;;;8440802;28;20200;-66
2022/03/19 18:53:35;;;;;;;100.30;38.27;;;3.70;99.90;;;;;;8454426;28;20215;-66
2022/03/19 18:57:37;;;;;;;101.73;40.57;;;3.50;99.90;;;;;;8426069;28;20482;-65
2022/03/19 19:01:38;;;;;;;110.30;42.33;;;3.30;99.90;;;;;;8444156;28;20220;-66
2022/03/19 19:05:39;;;;;;;131.23;48.97;;;3.30;99.90;;;;;;8446726;28;20280;-66
2022/03/19 19:09:40;;;;;;;131.70;47.60;;;3.10;99.90;;;;;;8438780;28;20232;-66
2022/03/19 19:13:41;;;;;;;129.27;47.80;;;2.80;99.90;;;;;;8453338;28;20211;-66
2022/03/19 19:17:42;;;;;;;133.33;52.10;;;2.60;99.90;;;;;;8442916;28;20227;-66
2022/03/19 19:21:43;;;;;;;132.63;49.93;;;2.50;99.90;;;;;;8433501;28;20222;-66
2022/03/19 19:25:44;;;;;;;111.50;42.30;;;2.40;99.90;;;;;;8446000;28;20200;-66
2022/03/19 19:29:45;;;;;;;85.93;32.80;;;2.20;99.90;;;;;;8441469;28;20215;-66
2022/03/19 19:33:45;;;;;;;97.57;36.77;;;2.10;99.90;;;;;;8435817;28;20226;-66
2022/03/19 19:37:46;;;;;;;107.33;41.40;;;2.00;99.90;;;;;;8447021;28;20265;-66
2022/03/19 19:41:47;;;;;;;132.60;48.13;;;1.90;99.90;;;;;;8423302;28;20303;-66
2022/03/19 19:45:48;;;;;;;103.83;39.73;;;1.80;99.90;;;;;;8425527;28;20223;-66
2022/03/19 19:49:49;;;;;;;82.47;33.47;;;1.80;99.90;;;;;;8444161;28;20211;-66
2022/03/19 19:53:50;;;;;;;84.10;35.20;;;1.60;99.90;;;;;;8432359;28;20222;-66
2022/03/19 19:57:57;;;;;;;66.67;30.90;;;1.50;99.90;;;;;;8424023;28;20222;-65
2022/03/19 20:01:58;;;;;;;54.73;26.30;;;1.50;99.90;;;;;;8435757;28;20223;-66
2022/03/19 20:06:01;;;;;;;42.43;20.40;;;1.60;99.90;;;;;;8431827;28;20233;-66
2022/03/19 20:10:03;;;;;;;44.30;21.07;;;1.70;99.90;;;;;;8434941;28;20215;-66
2022/03/19 20:14:04;;;;;;;36.27;18.93;;;1.80;99.90;;;;;;8439374;28;20235;-65
2022/03/19 20:18:06;;;;;;;35.50;17.63;;;1.90;99.90;;;;;;8441992;28;20220;-65
2022/03/19 20:22:07;;;;;;;26.83;15.13;;;2.00;99.90;;;;;;8435658;28;20215;-67
2022/03/19 20:26:08;;;;;;;26.27;13.07;;;2.10;99.90;;;;;;8448641;28;20258;-66
2022/03/19 20:30:10;;;;;;;23.67;12.43;;;2.30;99.90;;;;;;8447724;28;20253;-65
2022/03/19 20:34:12;;;;;;;240.00;88.43;;;2.30;99.90;;;;;;8430017;28;20209;-65
2022/03/19 20:38:13;;;;;;;143.57;87.33;;;2.40;99.90;;;;;;8448256;28;20219;-67
2022/03/19 20:42:15;;;;;;;33.90;18.40;;;2.40;99.90;;;;;;8424301;28;20207;-65
2022/03/19 20:46:16;;;;;;;38.07;17.80;;;2.30;99.90;;;;;;8423229;28;20230;-66
2022/03/19 20:50:25;;;;;;;25.77;14.77;;;2.40;99.90;;;;;;8424851;28;20208;-66
2022/03/19 20:54:26;;;;;;;22.33;13.00;;;2.40;99.90;;;;;;8429596;28;20204;-66
2022/03/19 20:58:28;;;;;;;23.63;14.13;;;2.50;99.90;;;;;;8442638;28;20223;-65
2022/03/19 21:02:29;;;;;;;24.40;12.80;;;2.50;99.90;;;;;;8425778;28;20230;-67